Terminal Aerodrome Forecast
Issued by NWS

Home | Current Version | Previous Version | Text Only | Print | Product List | Glossary On
Versions: 1 2 3 4 5 6 7 8 9 10 11 12 13 14 15 16 17 18 19 20 21 22 23 24 25 26 27 28
000
FTUS43 KJKL 181122
TAFSYM
TAF
KSYM 181122Z 1812/1912 15005KT P6SM -RA OVC035 WS020/20045KT
     FM181400 19011G24KT P6SM -SHRA OVC050 WS020/20050KT
     FM181800 22013G28KT P6SM SHRA OVC014
     FM182100 24014G30KT P6SM OVC018=

USA.gov is the U.S. government's official web portal to all federal, state and local government web resources and services.